sensor_id;sensor_type;location;lat;lon;timestamp;temperature;humidity
17208;DHT22;8720;48.488;9.202;2024-01-30T00:02:19;6.10;54.80
17208;DHT22;8720;48.488;9.202;2024-01-30T00:04:48;6.10;54.90
17208;DHT22;8720;48.488;9.202;2024-01-30T00:07:20;6.00;54.70
17208;DHT22;8720;48.488;9.202;2024-01-30T00:09:47;6.00;54.70
17208;DHT22;8720;48.488;9.202;2024-01-30T00:12:15;5.90;54.80
17208;DHT22;8720;48.488;9.202;2024-01-30T00:14:42;5.90;54.80
17208;DHT22;8720;48.488;9.202;2024-01-30T00:17:11;5.80;54.80
17208;DHT22;8720;48.488;9.202;2024-01-30T00:19:39;5.70;54.70
17208;DHT22;8720;48.488;9.202;2024-01-30T00:22:09;5.70;54.80
17208;DHT22;8720;48.488;9.202;2024-01-30T00:24:37;5.60;54.70
17208;DHT22;8720;48.488;9.202;2024-01-30T00:27:04;5.60;54.80
17208;DHT22;8720;48.488;9.202;2024-01-30T00:29:32;5.60;54.80
17208;DHT22;8720;48.488;9.202;2024-01-30T00:31:59;5.50;54.80
17208;DHT22;8720;48.488;9.202;2024-01-30T00:34:28;5.50;54.90
17208;DHT22;8720;48.488;9.202;2024-01-30T00:36:56;5.50;55.50
17208;DHT22;8720;48.488;9.202;2024-01-30T00:39:23;5.40;55.00
17208;DHT22;8720;48.488;9.202;2024-01-30T00:41:51;5.40;55.10
17208;DHT22;8720;48.488;9.202;2024-01-30T00:44:18;5.40;55.20
17208;DHT22;8720;48.488;9.202;2024-01-30T00:46:46;5.40;55.20
17208;DHT22;8720;48.488;9.202;2024-01-30T00:49:13;5.40;55.20
17208;DHT22;8720;48.488;9.202;2024-01-30T00:51:42;5.40;55.90
17208;DHT22;8720;48.488;9.202;2024-01-30T00:54:09;5.40;55.40
17208;DHT22;8720;48.488;9.202;2024-01-30T00:56:37;5.40;55.60
17208;DHT22;8720;48.488;9.202;2024-01-30T00:59:04;5.40;55.60
17208;DHT22;8720;48.488;9.202;2024-01-30T01:01:31;5.40;55.70
17208;DHT22;8720;48.488;9.202;2024-01-30T01:03:59;5.30;55.70
17208;DHT22;8720;48.488;9.202;2024-01-30T01:06:26;5.40;55.90
17208;DHT22;8720;48.488;9.202;2024-01-30T01:08:55;5.40;55.90
17208;DHT22;8720;48.488;9.202;2024-01-30T01:11:23;5.40;55.80
17208;DHT22;8720;48.488;9.202;2024-01-30T01:13:50;5.40;55.90
17208;DHT22;8720;48.488;9.202;2024-01-30T01:16:18;5.40;56.00
17208;DHT22;8720;48.488;9.202;2024-01-30T01:18:45;5.40;56.00
17208;DHT22;8720;48.488;9.202;2024-01-30T01:21:12;5.40;55.90
17208;DHT22;8720;48.488;9.202;2024-01-30T01:23:40;5.40;55.90
17208;DHT22;8720;48.488;9.202;2024-01-30T01:26:09;5.40;55.90
17208;DHT22;8720;48.488;9.202;2024-01-30T01:28:36;5.40;55.80
17208;DHT22;8720;48.488;9.202;2024-01-30T01:31:06;5.40;55.90
17208;DHT22;8720;48.488;9.202;2024-01-30T01:33:33;5.40;55.80
17208;DHT22;8720;48.488;9.202;2024-01-30T01:36:03;5.40;55.80
17208;DHT22;8720;48.488;9.202;2024-01-30T01:38:30;5.40;55.80
17208;DHT22;8720;48.488;9.202;2024-01-30T01:40:58;5.40;55.80
17208;DHT22;8720;48.488;9.202;2024-01-30T01:43:27;5.40;55.90
17208;DHT22;8720;48.488;9.202;2024-01-30T01:45:54;5.40;55.70
17208;DHT22;8720;48.488;9.202;2024-01-30T01:48:24;5.40;55.90
17208;DHT22;8720;48.488;9.202;2024-01-30T01:50:53;5.40;55.90
17208;DHT22;8720;48.488;9.202;2024-01-30T01:53:21;5.40;55.80
17208;DHT22;8720;48.488;9.202;2024-01-30T01:55:48;5.50;55.80
17208;DHT22;8720;48.488;9.202;2024-01-30T01:58:16;5.50;55.70
17208;DHT22;8720;48.488;9.202;2024-01-30T02:00:48;5.50;55.70
17208;DHT22;8720;48.488;9.202;2024-01-30T02:03:17;5.50;55.70
17208;DHT22;8720;48.488;9.202;2024-01-30T02:05:47;5.50;55.70
17208;DHT22;8720;48.488;9.202;2024-01-30T02:08:16;5.50;55.80
17208;DHT22;8720;48.488;9.202;2024-01-30T02:10:43;5.40;55.60
17208;DHT22;8720;48.488;9.202;2024-01-30T02:13:11;5.40;55.70
17208;DHT22;8720;48.488;9.202;2024-01-30T02:15:38;5.40;55.60
17208;DHT22;8720;48.488;9.202;2024-01-30T02:18:07;5.40;55.60
17208;DHT22;8720;48.488;9.202;2024-01-30T02:20:35;5.30;55.30
17208;DHT22;8720;48.488;9.202;2024-01-30T02:23:06;5.30;55.40
17208;DHT22;8720;48.488;9.202;2024-01-30T02:25:39;5.20;55.20
17208;DHT22;8720;48.488;9.202;2024-01-30T02:28:10;5.10;55.10
17208;DHT22;8720;48.488;9.202;2024-01-30T02:30:38;5.10;55.30
17208;DHT22;8720;48.488;9.202;2024-01-30T02:33:05;5.00;55.30
17208;DHT22;8720;48.488;9.202;2024-01-30T02:35:33;4.90;55.40
17208;DHT22;8720;48.488;9.202;2024-01-30T02:38:01;4.90;55.60
17208;DHT22;8720;48.488;9.202;2024-01-30T02:40:29;4.80;55.80
17208;DHT22;8720;48.488;9.202;2024-01-30T02:42:58;4.80;55.90
17208;DHT22;8720;48.488;9.202;2024-01-30T02:45:26;4.70;56.10
17208;DHT22;8720;48.488;9.202;2024-01-30T02:47:54;4.70;56.30
17208;DHT22;8720;48.488;9.202;2024-01-30T02:50:21;4.70;56.40
17208;DHT22;8720;48.488;9.202;2024-01-30T02:52:48;4.70;56.40
17208;DHT22;8720;48.488;9.202;2024-01-30T02:55:16;4.70;56.40
17208;DHT22;8720;48.488;9.202;2024-01-30T02:57:45;4.60;56.30
17208;DHT22;8720;48.488;9.202;2024-01-30T03:00:13;4.60;56.30
17208;DHT22;8720;48.488;9.202;2024-01-30T03:02:56;4.60;56.40
17208;DHT22;8720;48.488;9.202;2024-01-30T03:05:23;4.60;56.50
17208;DHT22;8720;48.488;9.202;2024-01-30T03:07:51;4.50;56.40
17208;DHT22;8720;48.488;9.202;2024-01-30T03:10:18;4.50;56.40
17208;DHT22;8720;48.488;9.202;2024-01-30T03:12:47;4.40;56.30
17208;DHT22;8720;48.488;9.202;2024-01-30T03:15:15;4.40;56.40
17208;DHT22;8720;48.488;9.202;2024-01-30T03:17:42;4.40;56.50
17208;DHT22;8720;48.488;9.202;2024-01-30T03:20:10;4.40;56.50
17208;DHT22;8720;48.488;9.202;2024-01-30T03:22:38;4.30;56.40
17208;DHT22;8720;48.488;9.202;2024-01-30T03:25:06;4.30;56.50
17208;DHT22;8720;48.488;9.202;2024-01-30T03:27:34;4.30;56.50
17208;DHT22;8720;48.488;9.202;2024-01-30T03:30:03;4.30;56.50
17208;DHT22;8720;48.488;9.202;2024-01-30T03:32:32;4.20;56.30
17208;DHT22;8720;48.488;9.202;2024-01-30T03:34:59;4.20;56.50
17208;DHT22;8720;48.488;9.202;2024-01-30T03:37:27;4.20;56.60
17208;DHT22;8720;48.488;9.202;2024-01-30T03:39:54;4.10;56.50
17208;DHT22;8720;48.488;9.202;2024-01-30T03:42:21;4.10;56.50
17208;DHT22;8720;48.488;9.202;2024-01-30T03:44:51;4.10;56.50
17208;DHT22;8720;48.488;9.202;2024-01-30T03:47:21;4.10;56.50
17208;DHT22;8720;48.488;9.202;2024-01-30T03:49:48;4.10;56.50
17208;DHT22;8720;48.488;9.202;2024-01-30T03:52:15;4.00;56.50
17208;DHT22;8720;48.488;9.202;2024-01-30T03:54:43;4.00;56.60
17208;DHT22;8720;48.488;9.202;2024-01-30T03:57:11;4.00;56.70
17208;DHT22;8720;48.488;9.202;2024-01-30T03:59:41;4.00;56.70
17208;DHT22;8720;48.488;9.202;2024-01-30T04:02:10;3.90;56.60
17208;DHT22;8720;48.488;9.202;2024-01-30T04:04:39;3.90;56.60
17208;DHT22;8720;48.488;9.202;2024-01-30T04:07:06;3.90;56.60
17208;DHT22;8720;48.488;9.202;2024-01-30T04:09:33;3.90;56.70
17208;DHT22;8720;48.488;9.202;2024-01-30T04:12:01;3.80;56.60
17208;DHT22;8720;48.488;9.202;2024-01-30T04:14:29;3.80;56.60
17208;DHT22;8720;48.488;9.202;2024-01-30T04:16:56;3.70;56.60
17208;DHT22;8720;48.488;9.202;2024-01-30T04:19:24;3.80;56.80
17208;DHT22;8720;48.488;9.202;2024-01-30T04:21:53;3.70;56.80
17208;DHT22;8720;48.488;9.202;2024-01-30T04:24:20;3.70;56.80
17208;DHT22;8720;48.488;9.202;2024-01-30T04:26:47;3.70;56.90
17208;DHT22;8720;48.488;9.202;2024-01-30T04:29:14;3.70;56.90
17208;DHT22;8720;48.488;9.202;2024-01-30T04:31:42;3.70;57.00
17208;DHT22;8720;48.488;9.202;2024-01-30T04:34:09;3.70;57.10
17208;DHT22;8720;48.488;9.202;2024-01-30T04:36:36;3.60;57.00
17208;DHT22;8720;48.488;9.202;2024-01-30T04:39:05;3.60;57.00
17208;DHT22;8720;48.488;9.202;2024-01-30T04:41:34;3.60;56.90
17208;DHT22;8720;48.488;9.202;2024-01-30T04:44:01;3.60;57.00
17208;DHT22;8720;48.488;9.202;2024-01-30T04:46:29;3.60;57.00
17208;DHT22;8720;48.488;9.202;2024-01-30T04:48:56;3.60;57.00
17208;DHT22;8720;48.488;9.202;2024-01-30T04:51:23;3.60;57.10
17208;DHT22;8720;48.488;9.202;2024-01-30T04:53:51;3.60;57.20
17208;DHT22;8720;48.488;9.202;2024-01-30T04:56:19;3.60;57.20
17208;DHT22;8720;48.488;9.202;2024-01-30T04:58:47;3.60;57.20
17208;DHT22;8720;48.488;9.202;2024-01-30T05:01:15;3.60;57.40
17208;DHT22;8720;48.488;9.202;2024-01-30T05:03:43;3.60;57.40
17208;DHT22;8720;48.488;9.202;2024-01-30T05:06:10;3.60;57.50
17208;DHT22;8720;48.488;9.202;2024-01-30T05:08:37;3.60;57.60
17208;DHT22;8720;48.488;9.202;2024-01-30T05:11:05;3.60;57.60
17208;DHT22;8720;48.488;9.202;2024-01-30T05:13:34;3.60;57.60
17208;DHT22;8720;48.488;9.202;2024-01-30T05:16:02;3.60;57.60
17208;DHT22;8720;48.488;9.202;2024-01-30T05:18:30;3.60;57.70
17208;DHT22;8720;48.488;9.202;2024-01-30T05:20:57;3.70;57.80
17208;DHT22;8720;48.488;9.202;2024-01-30T05:23:25;3.70;57.70
17208;DHT22;8720;48.488;9.202;2024-01-30T05:25:52;3.70;57.70
17208;DHT22;8720;48.488;9.202;2024-01-30T05:28:20;3.70;57.70
17208;DHT22;8720;48.488;9.202;2024-01-30T05:30:48;3.70;57.70
17208;DHT22;8720;48.488;9.202;2024-01-30T05:33:16;3.70;57.60
17208;DHT22;8720;48.488;9.202;2024-01-30T05:35:43;3.60;57.50
17208;DHT22;8720;48.488;9.202;2024-01-30T05:38:11;3.60;57.50
17208;DHT22;8720;48.488;9.202;2024-01-30T05:40:39;3.60;57.40
17208;DHT22;8720;48.488;9.202;2024-01-30T05:43:07;3.60;57.40
17208;DHT22;8720;48.488;9.202;2024-01-30T05:45:34;3.60;57.50
17208;DHT22;8720;48.488;9.202;2024-01-30T05:48:03;3.60;57.60
17208;DHT22;8720;48.488;9.202;2024-01-30T05:50:31;3.60;57.60
17208;DHT22;8720;48.488;9.202;2024-01-30T05:52:59;3.50;57.60
17208;DHT22;8720;48.488;9.202;2024-01-30T05:55:26;3.60;57.70
17208;DHT22;8720;48.488;9.202;2024-01-30T05:57:54;3.60;57.70
17208;DHT22;8720;48.488;9.202;2024-01-30T06:00:21;3.50;57.70
17208;DHT22;8720;48.488;9.202;2024-01-30T06:02:48;3.50;57.70
17208;DHT22;8720;48.488;9.202;2024-01-30T06:05:17;3.50;57.70
17208;DHT22;8720;48.488;9.202;2024-01-30T06:07:44;3.60;57.80
17208;DHT22;8720;48.488;9.202;2024-01-30T06:10:12;3.50;57.70
17208;DHT22;8720;48.488;9.202;2024-01-30T06:12:39;3.60;57.80
17208;DHT22;8720;48.488;9.202;2024-01-30T06:15:07;3.60;57.70
17208;DHT22;8720;48.488;9.202;2024-01-30T06:17:35;3.60;57.70
17208;DHT22;8720;48.488;9.202;2024-01-30T06:20:04;3.60;58.20
17208;DHT22;8720;48.488;9.202;2024-01-30T06:22:33;3.50;57.60
17208;DHT22;8720;48.488;9.202;2024-01-30T06:25:01;3.50;57.50
17208;DHT22;8720;48.488;9.202;2024-01-30T06:27:28;3.50;57.60
17208;DHT22;8720;48.488;9.202;2024-01-30T06:29:56;3.50;57.50
17208;DHT22;8720;48.488;9.202;2024-01-30T06:32:23;3.50;57.50
17208;DHT22;8720;48.488;9.202;2024-01-30T06:34:51;3.40;57.50
17208;DHT22;8720;48.488;9.202;2024-01-30T06:37:18;3.40;57.50
17208;DHT22;8720;48.488;9.202;2024-01-30T06:39:47;3.30;57.50
17208;DHT22;8720;48.488;9.202;2024-01-30T06:42:14;3.30;57.40
17208;DHT22;8720;48.488;9.202;2024-01-30T06:44:41;3.30;57.50
17208;DHT22;8720;48.488;9.202;2024-01-30T06:47:09;3.20;57.50
17208;DHT22;8720;48.488;9.202;2024-01-30T06:49:37;3.20;57.50
17208;DHT22;8720;48.488;9.202;2024-01-30T06:52:05;3.20;57.70
17208;DHT22;8720;48.488;9.202;2024-01-30T06:54:33;3.10;57.70
17208;DHT22;8720;48.488;9.202;2024-01-30T06:57:02;3.10;57.80
17208;DHT22;8720;48.488;9.202;2024-01-30T06:59:29;3.10;57.90
17208;DHT22;8720;48.488;9.202;2024-01-30T07:01:57;3.00;57.90
17208;DHT22;8720;48.488;9.202;2024-01-30T07:04:24;3.00;58.10
17208;DHT22;8720;48.488;9.202;2024-01-30T07:06:51;3.00;59.30
17208;DHT22;8720;48.488;9.202;2024-01-30T07:09:20;3.00;59.10
17208;DHT22;8720;48.488;9.202;2024-01-30T07:11:48;3.10;59.20
17208;DHT22;8720;48.488;9.202;2024-01-30T07:14:17;3.10;59.20
17208;DHT22;8720;48.488;9.202;2024-01-30T07:16:44;3.10;59.00
17208;DHT22;8720;48.488;9.202;2024-01-30T07:19:12;3.20;59.10
17208;DHT22;8720;48.488;9.202;2024-01-30T07:21:39;3.30;59.10
17208;DHT22;8720;48.488;9.202;2024-01-30T07:24:06;3.30;59.00
17208;DHT22;8720;48.488;9.202;2024-01-30T07:26:34;3.40;59.00
17208;DHT22;8720;48.488;9.202;2024-01-30T07:29:02;3.40;59.00
17208;DHT22;8720;48.488;9.202;2024-01-30T07:31:31;3.50;59.00
17208;DHT22;8720;48.488;9.202;2024-01-30T07:33:59;3.50;59.00
17208;DHT22;8720;48.488;9.202;2024-01-30T07:36:26;3.60;59.10
17208;DHT22;8720;48.488;9.202;2024-01-30T07:38:54;3.60;59.00
17208;DHT22;8720;48.488;9.202;2024-01-30T07:41:21;3.70;59.10
17208;DHT22;8720;48.488;9.202;2024-01-30T07:43:50;3.70;59.20
17208;DHT22;8720;48.488;9.202;2024-01-30T07:46:19;3.80;59.30
17208;DHT22;8720;48.488;9.202;2024-01-30T07:48:48;3.90;59.50
17208;DHT22;8720;48.488;9.202;2024-01-30T07:51:15;4.00;59.50
17208;DHT22;8720;48.488;9.202;2024-01-30T07:53:42;4.00;59.60
17208;DHT22;8720;48.488;9.202;2024-01-30T07:56:10;4.10;59.70
17208;DHT22;8720;48.488;9.202;2024-01-30T07:58:37;4.20;59.70
17208;DHT22;8720;48.488;9.202;2024-01-30T08:01:05;4.30;59.70
17208;DHT22;8720;48.488;9.202;2024-01-30T08:03:32;4.40;59.60
17208;DHT22;8720;48.488;9.202;2024-01-30T08:06:01;4.50;59.50
17208;DHT22;8720;48.488;9.202;2024-01-30T08:08:29;4.60;59.30
17208;DHT22;8720;48.488;9.202;2024-01-30T08:10:56;4.70;59.40
17208;DHT22;8720;48.488;9.202;2024-01-30T08:13:23;4.80;59.30
17208;DHT22;8720;48.488;9.202;2024-01-30T08:15:51;4.90;59.20
17208;DHT22;8720;48.488;9.202;2024-01-30T08:18:18;5.00;59.10
17208;DHT22;8720;48.488;9.202;2024-01-30T08:20:45;5.10;59.10
17208;DHT22;8720;48.488;9.202;2024-01-30T08:23:14;5.10;59.00
17208;DHT22;8720;48.488;9.202;2024-01-30T08:25:42;5.20;58.90
17208;DHT22;8720;48.488;9.202;2024-01-30T08:28:10;5.30;59.10
17208;DHT22;8720;48.488;9.202;2024-01-30T08:30:37;5.40;59.00
17208;DHT22;8720;48.488;9.202;2024-01-30T08:33:05;5.50;59.10
17208;DHT22;8720;48.488;9.202;2024-01-30T08:35:33;5.60;58.90
17208;DHT22;8720;48.488;9.202;2024-01-30T08:38:00;5.70;58.80
17208;DHT22;8720;48.488;9.202;2024-01-30T08:40:31;5.80;58.70
17208;DHT22;8720;48.488;9.202;2024-01-30T08:42:58;5.90;58.40
17208;DHT22;8720;48.488;9.202;2024-01-30T08:45:26;6.00;58.70
17208;DHT22;8720;48.488;9.202;2024-01-30T08:47:53;6.10;58.50
17208;DHT22;8720;48.488;9.202;2024-01-30T08:50:21;6.20;58.60
17208;DHT22;8720;48.488;9.202;2024-01-30T08:52:48;6.30;58.50
17208;DHT22;8720;48.488;9.202;2024-01-30T08:55:16;6.40;58.30
17208;DHT22;8720;48.488;9.202;2024-01-30T08:57:45;6.50;58.20
17208;DHT22;8720;48.488;9.202;2024-01-30T09:00:13;6.60;58.00
17208;DHT22;8720;48.488;9.202;2024-01-30T09:02:41;6.70;58.10
17208;DHT22;8720;48.488;9.202;2024-01-30T09:05:08;6.80;58.20
17208;DHT22;8720;48.488;9.202;2024-01-30T09:07:36;6.90;57.90
17208;DHT22;8720;48.488;9.202;2024-01-30T09:10:04;7.00;57.60
17208;DHT22;8720;48.488;9.202;2024-01-30T09:12:33;7.10;57.20
17208;DHT22;8720;48.488;9.202;2024-01-30T09:15:01;7.10;57.10
17208;DHT22;8720;48.488;9.202;2024-01-30T09:17:29;7.20;56.70
17208;DHT22;8720;48.488;9.202;2024-01-30T09:19:57;7.30;56.70
17208;DHT22;8720;48.488;9.202;2024-01-30T09:22:24;7.30;56.60
17208;DHT22;8720;48.488;9.202;2024-01-30T09:24:52;7.40;56.60
17208;DHT22;8720;48.488;9.202;2024-01-30T09:27:19;7.40;56.40
17208;DHT22;8720;48.488;9.202;2024-01-30T09:29:47;7.40;56.30
17208;DHT22;8720;48.488;9.202;2024-01-30T09:32:15;7.50;56.30
17208;DHT22;8720;48.488;9.202;2024-01-30T09:34:44;7.50;56.00
17208;DHT22;8720;48.488;9.202;2024-01-30T09:37:11;7.60;56.20
17208;DHT22;8720;48.488;9.202;2024-01-30T09:39:41;7.60;56.20
17208;DHT22;8720;48.488;9.202;2024-01-30T09:42:15;7.60;56.30
17208;DHT22;8720;48.488;9.202;2024-01-30T09:44:51;7.70;55.70
17208;DHT22;8720;48.488;9.202;2024-01-30T09:47:21;7.80;56.00
17208;DHT22;8720;48.488;9.202;2024-01-30T09:49:49;7.90;56.10
17208;DHT22;8720;48.488;9.202;2024-01-30T09:52:18;8.00;56.30
17208;DHT22;8720;48.488;9.202;2024-01-30T09:54:45;8.10;56.40
17208;DHT22;8720;48.488;9.202;2024-01-30T09:57:14;8.20;56.30
17208;DHT22;8720;48.488;9.202;2024-01-30T09:59:42;8.30;56.40
17208;DHT22;8720;48.488;9.202;2024-01-30T10:02:10;8.40;56.30
17208;DHT22;8720;48.488;9.202;2024-01-30T10:04:38;8.50;56.30
17208;DHT22;8720;48.488;9.202;2024-01-30T10:07:06;8.60;56.10
17208;DHT22;8720;48.488;9.202;2024-01-30T10:09:34;8.70;56.30
17208;DHT22;8720;48.488;9.202;2024-01-30T10:12:04;8.80;56.20
17208;DHT22;8720;48.488;9.202;2024-01-30T10:14:33;8.90;56.00
17208;DHT22;8720;48.488;9.202;2024-01-30T10:17:01;9.10;56.30
17208;DHT22;8720;48.488;9.202;2024-01-30T10:19:29;9.10;56.00
17208;DHT22;8720;48.488;9.202;2024-01-30T10:21:59;9.30;56.00
17208;DHT22;8720;48.488;9.202;2024-01-30T10:24:27;9.30;55.20
17208;DHT22;8720;48.488;9.202;2024-01-30T10:26:55;9.40;56.10
17208;DHT22;8720;48.488;9.202;2024-01-30T10:29:23;9.50;55.50
17208;DHT22;8720;48.488;9.202;2024-01-30T10:31:58;9.60;55.40
17208;DHT22;8720;48.488;9.202;2024-01-30T10:34:26;9.60;54.30
17208;DHT22;8720;48.488;9.202;2024-01-30T10:37:03;9.70;55.30
17208;DHT22;8720;48.488;9.202;2024-01-30T10:39:39;9.80;54.50
17208;DHT22;8720;48.488;9.202;2024-01-30T10:42:07;9.90;55.20
17208;DHT22;8720;48.488;9.202;2024-01-30T10:44:47;10.10;54.20
17208;DHT22;8720;48.488;9.202;2024-01-30T10:47:26;10.10;53.10
17208;DHT22;8720;48.488;9.202;2024-01-30T10:49:55;10.30;53.40
17208;DHT22;8720;48.488;9.202;2024-01-30T10:52:26;10.30;53.80
17208;DHT22;8720;48.488;9.202;2024-01-30T10:54:55;10.40;53.40
17208;DHT22;8720;48.488;9.202;2024-01-30T10:57:23;10.40;53.60
17208;DHT22;8720;48.488;9.202;2024-01-30T10:59:53;10.50;53.70
17208;DHT22;8720;48.488;9.202;2024-01-30T11:02:24;10.60;53.70
17208;DHT22;8720;48.488;9.202;2024-01-30T11:04:56;10.70;53.80
17208;DHT22;8720;48.488;9.202;2024-01-30T11:07:26;10.80;53.40
17208;DHT22;8720;48.488;9.202;2024-01-30T11:10:00;10.90;53.70
17208;DHT22;8720;48.488;9.202;2024-01-30T11:12:30;11.00;53.20
17208;DHT22;8720;48.488;9.202;2024-01-30T11:15:05;11.10;53.80
17208;DHT22;8720;48.488;9.202;2024-01-30T11:17:45;11.20;53.40
17208;DHT22;8720;48.488;9.202;2024-01-30T11:20:20;11.30;52.90
17208;DHT22;8720;48.488;9.202;2024-01-30T11:22:51;11.40;53.60
17208;DHT22;8720;48.488;9.202;2024-01-30T11:25:20;11.50;53.30
17208;DHT22;8720;48.488;9.202;2024-01-30T11:27:50;11.60;53.80
17208;DHT22;8720;48.488;9.202;2024-01-30T11:30:22;11.70;53.40
17208;DHT22;8720;48.488;9.202;2024-01-30T11:33:01;11.80;52.80
17208;DHT22;8720;48.488;9.202;2024-01-30T11:35:32;11.90;52.10
17208;DHT22;8720;48.488;9.202;2024-01-30T11:38:02;11.90;53.30
17208;DHT22;8720;48.488;9.202;2024-01-30T11:40:32;12.00;53.00
17208;DHT22;8720;48.488;9.202;2024-01-30T11:43:01;12.00;53.10
17208;DHT22;8720;48.488;9.202;2024-01-30T11:45:30;12.10;53.20
17208;DHT22;8720;48.488;9.202;2024-01-30T11:47:59;12.20;53.30
17208;DHT22;8720;48.488;9.202;2024-01-30T11:50:29;12.30;53.40
17208;DHT22;8720;48.488;9.202;2024-01-30T11:52:57;12.40;53.30
17208;DHT22;8720;48.488;9.202;2024-01-30T11:55:29;12.50;53.40
17208;DHT22;8720;48.488;9.202;2024-01-30T11:57:57;12.60;52.70
17208;DHT22;8720;48.488;9.202;2024-01-30T12:00:25;12.60;53.20
17208;DHT22;8720;48.488;9.202;2024-01-30T12:02:53;12.70;53.00
17208;DHT22;8720;48.488;9.202;2024-01-30T12:05:22;12.80;52.80
17208;DHT22;8720;48.488;9.202;2024-01-30T12:07:50;12.90;53.00
17208;DHT22;8720;48.488;9.202;2024-01-30T12:10:18;13.00;53.00
17208;DHT22;8720;48.488;9.202;2024-01-30T12:12:50;13.10;52.90
17208;DHT22;8720;48.488;9.202;2024-01-30T12:15:18;13.20;51.90
17208;DHT22;8720;48.488;9.202;2024-01-30T12:17:49;13.30;52.00
17208;DHT22;8720;48.488;9.202;2024-01-30T12:20:18;13.40;52.10
17208;DHT22;8720;48.488;9.202;2024-01-30T12:22:48;13.50;51.80
17208;DHT22;8720;48.488;9.202;2024-01-30T12:25:19;13.60;51.50
17208;DHT22;8720;48.488;9.202;2024-01-30T12:27:50;13.70;50.90
17208;DHT22;8720;48.488;9.202;2024-01-30T12:30:19;13.80;50.50
17208;DHT22;8720;48.488;9.202;2024-01-30T12:32:49;13.90;50.70
17208;DHT22;8720;48.488;9.202;2024-01-30T12:35:19;14.00;50.30
17208;DHT22;8720;48.488;9.202;2024-01-30T12:37:48;14.10;50.80
17208;DHT22;8720;48.488;9.202;2024-01-30T12:40:17;14.20;50.60
17208;DHT22;8720;48.488;9.202;2024-01-30T12:42:46;14.30;50.60
17208;DHT22;8720;48.488;9.202;2024-01-30T12:45:17;14.40;50.20
17208;DHT22;8720;48.488;9.202;2024-01-30T12:47:47;14.40;50.00
17208;DHT22;8720;48.488;9.202;2024-01-30T12:50:15;14.50;50.50
17208;DHT22;8720;48.488;9.202;2024-01-30T12:52:43;14.60;50.70
17208;DHT22;8720;48.488;9.202;2024-01-30T12:55:12;14.70;50.40
17208;DHT22;8720;48.488;9.202;2024-01-30T12:57:39;14.80;50.00
17208;DHT22;8720;48.488;9.202;2024-01-30T13:00:08;14.90;50.00
17208;DHT22;8720;48.488;9.202;2024-01-30T13:02:37;15.00;49.80
17208;DHT22;8720;48.488;9.202;2024-01-30T13:05:05;15.10;49.30
17208;DHT22;8720;48.488;9.202;2024-01-30T13:07:33;15.20;49.70
17208;DHT22;8720;48.488;9.202;2024-01-30T13:10:01;15.30;49.70
17208;DHT22;8720;48.488;9.202;2024-01-30T13:12:29;15.40;49.50
17208;DHT22;8720;48.488;9.202;2024-01-30T13:14:58;15.40;49.20
17208;DHT22;8720;48.488;9.202;2024-01-30T13:17:26;15.50;49.00
17208;DHT22;8720;48.488;9.202;2024-01-30T13:19:55;15.60;49.00
17208;DHT22;8720;48.488;9.202;2024-01-30T13:22:23;15.70;48.50
17208;DHT22;8720;48.488;9.202;2024-01-30T13:24:51;15.70;48.70
17208;DHT22;8720;48.488;9.202;2024-01-30T13:27:18;15.70;48.60
17208;DHT22;8720;48.488;9.202;2024-01-30T13:29:47;15.80;48.50
17208;DHT22;8720;48.488;9.202;2024-01-30T13:32:14;15.80;48.40
17208;DHT22;8720;48.488;9.202;2024-01-30T13:34:42;15.80;48.40
17208;DHT22;8720;48.488;9.202;2024-01-30T13:37:11;15.90;48.30
17208;DHT22;8720;48.488;9.202;2024-01-30T13:39:38;15.90;47.90
17208;DHT22;8720;48.488;9.202;2024-01-30T13:42:06;15.90;48.50
17208;DHT22;8720;48.488;9.202;2024-01-30T13:44:34;15.90;48.40
17208;DHT22;8720;48.488;9.202;2024-01-30T13:47:03;15.90;48.20
17208;DHT22;8720;48.488;9.202;2024-01-30T13:49:30;15.90;48.50
17208;DHT22;8720;48.488;9.202;2024-01-30T13:51:58;15.90;48.40
17208;DHT22;8720;48.488;9.202;2024-01-30T13:54:26;15.90;48.50
17208;DHT22;8720;48.488;9.202;2024-01-30T13:56:54;15.90;48.10
17208;DHT22;8720;48.488;9.202;2024-01-30T13:59:21;15.90;48.60
17208;DHT22;8720;48.488;9.202;2024-01-30T14:01:51;15.90;48.70
17208;DHT22;8720;48.488;9.202;2024-01-30T14:04:18;15.90;48.50
17208;DHT22;8720;48.488;9.202;2024-01-30T14:06:46;15.90;48.40
17208;DHT22;8720;48.488;9.202;2024-01-30T14:09:13;15.90;48.40
17208;DHT22;8720;48.488;9.202;2024-01-30T14:11:42;15.90;48.20
17208;DHT22;8720;48.488;9.202;2024-01-30T14:14:10;15.90;47.80
17208;DHT22;8720;48.488;9.202;2024-01-30T14:16:37;15.90;48.30
17208;DHT22;8720;48.488;9.202;2024-01-30T14:19:04;15.90;48.00
17208;DHT22;8720;48.488;9.202;2024-01-30T14:21:32;15.90;48.00
17208;DHT22;8720;48.488;9.202;2024-01-30T14:23:59;16.00;48.10
17208;DHT22;8720;48.488;9.202;2024-01-30T14:26:27;16.00;47.80
17208;DHT22;8720;48.488;9.202;2024-01-30T14:28:55;16.00;47.80
17208;DHT22;8720;48.488;9.202;2024-01-30T14:31:23;16.00;47.10
17208;DHT22;8720;48.488;9.202;2024-01-30T14:33:50;16.00;47.50
17208;DHT22;8720;48.488;9.202;2024-01-30T14:36:17;16.00;47.50
17208;DHT22;8720;48.488;9.202;2024-01-30T14:38:46;16.00;47.40
17208;DHT22;8720;48.488;9.202;2024-01-30T14:41:13;16.00;47.40
17208;DHT22;8720;48.488;9.202;2024-01-30T14:43:41;16.00;47.30
17208;DHT22;8720;48.488;9.202;2024-01-30T14:46:10;16.00;47.30
17208;DHT22;8720;48.488;9.202;2024-01-30T14:48:37;16.00;47.00
17208;DHT22;8720;48.488;9.202;2024-01-30T14:51:05;16.00;47.20
17208;DHT22;8720;48.488;9.202;2024-01-30T14:53:32;16.00;46.90
17208;DHT22;8720;48.488;9.202;2024-01-30T14:55:59;16.00;46.80
17208;DHT22;8720;48.488;9.202;2024-01-30T14:58:28;16.00;46.70
17208;DHT22;8720;48.488;9.202;2024-01-30T15:00:56;15.90;46.40
17208;DHT22;8720;48.488;9.202;2024-01-30T15:03:27;15.90;46.20
17208;DHT22;8720;48.488;9.202;2024-01-30T15:05:55;15.90;45.50
17208;DHT22;8720;48.488;9.202;2024-01-30T15:08:24;15.90;46.20
17208;DHT22;8720;48.488;9.202;2024-01-30T15:10:51;15.80;46.00
17208;DHT22;8720;48.488;9.202;2024-01-30T15:13:19;15.80;46.50
17208;DHT22;8720;48.488;9.202;2024-01-30T15:15:46;15.70;46.20
17208;DHT22;8720;48.488;9.202;2024-01-30T15:18:14;15.70;46.40
17208;DHT22;8720;48.488;9.202;2024-01-30T15:20:43;15.60;46.30
17208;DHT22;8720;48.488;9.202;2024-01-30T15:23:10;15.60;45.60
17208;DHT22;8720;48.488;9.202;2024-01-30T15:25:38;15.50;45.90
17208;DHT22;8720;48.488;9.202;2024-01-30T15:28:06;15.50;46.00
17208;DHT22;8720;48.488;9.202;2024-01-30T15:30:34;15.50;46.10
17208;DHT22;8720;48.488;9.202;2024-01-30T15:33:02;15.40;46.00
17208;DHT22;8720;48.488;9.202;2024-01-30T15:35:30;15.40;45.90
17208;DHT22;8720;48.488;9.202;2024-01-30T15:37:59;15.30;45.80
17208;DHT22;8720;48.488;9.202;2024-01-30T15:40:26;15.30;45.60
17208;DHT22;8720;48.488;9.202;2024-01-30T15:42:54;15.20;45.90
17208;DHT22;8720;48.488;9.202;2024-01-30T15:45:21;15.10;45.60
17208;DHT22;8720;48.488;9.202;2024-01-30T15:47:49;15.10;45.70
17208;DHT22;8720;48.488;9.202;2024-01-30T15:50:16;15.00;45.60
17208;DHT22;8720;48.488;9.202;2024-01-30T15:52:43;15.00;45.60
17208;DHT22;8720;48.488;9.202;2024-01-30T15:55:12;14.90;45.60
17208;DHT22;8720;48.488;9.202;2024-01-30T15:57:41;14.90;45.30
17208;DHT22;8720;48.488;9.202;2024-01-30T16:00:10;14.90;45.70
17208;DHT22;8720;48.488;9.202;2024-01-30T16:02:41;14.80;45.40
17208;DHT22;8720;48.488;9.202;2024-01-30T16:05:08;14.70;45.50